sensor_id;sensor_type;location;lat;lon;timestamp;P1;durP1;ratioP1;P2;durP2;ratioP2
15194;SDS011;7698;42.478;23.756;2023-06-24T00:00:21;10.40;;;9.63;;
15194;SDS011;7698;42.478;23.756;2023-06-24T00:02:48;10.45;;;9.75;;
15194;SDS011;7698;42.478;23.756;2023-06-24T00:05:16;10.68;;;9.98;;
15194;SDS011;7698;42.478;23.756;2023-06-24T00:07:43;9.15;;;8.50;;
15194;SDS011;7698;42.478;23.756;2023-06-24T00:10:14;9.88;;;9.18;;
15194;SDS011;7698;42.478;23.756;2023-06-24T00:12:42;9.40;;;8.70;;
15194;SDS011;7698;42.478;23.756;2023-06-24T00:15:09;11.85;;;10.95;;
15194;SDS011;7698;42.478;23.756;2023-06-24T00:17:37;11.20;;;10.30;;
15194;SDS011;7698;42.478;23.756;2023-06-24T00:20:04;10.93;;;10.02;;
15194;SDS011;7698;42.478;23.756;2023-06-24T00:22:34;12.10;;;11.20;;
15194;SDS011;7698;42.478;23.756;2023-06-24T00:25:00;13.18;;;12.27;;
15194;SDS011;7698;42.478;23.756;2023-06-24T00:27:27;12.25;;;11.35;;
15194;SDS011;7698;42.478;23.756;2023-06-24T00:29:56;12.40;;;11.45;;
15194;SDS011;7698;42.478;23.756;2023-06-24T00:32:22;12.88;;;11.88;;
15194;SDS011;7698;42.478;23.756;2023-06-24T00:34:49;13.77;;;12.68;;
15194;SDS011;7698;42.478;23.756;2023-06-24T00:37:16;13.70;;;12.73;;
15194;SDS011;7698;42.478;23.756;2023-06-24T00:39:43;13.82;;;12.65;;
15194;SDS011;7698;42.478;23.756;2023-06-24T00:42:10;13.40;;;12.30;;
15194;SDS011;7698;42.478;23.756;2023-06-24T00:44:36;11.75;;;10.90;;
15194;SDS011;7698;42.478;23.756;2023-06-24T00:47:06;12.68;;;11.70;;
15194;SDS011;7698;42.478;23.756;2023-06-24T00:49:35;12.38;;;11.48;;
15194;SDS011;7698;42.478;23.756;2023-06-24T00:52:02;10.60;;;9.80;;
15194;SDS011;7698;42.478;23.756;2023-06-24T00:54:29;13.30;;;12.23;;
15194;SDS011;7698;42.478;23.756;2023-06-24T00:56:57;12.52;;;11.60;;
15194;SDS011;7698;42.478;23.756;2023-06-24T00:59:26;13.65;;;12.60;;
15194;SDS011;7698;42.478;23.756;2023-06-24T01:01:55;15.02;;;13.75;;
15194;SDS011;7698;42.478;23.756;2023-06-24T01:04:23;14.50;;;13.30;;
15194;SDS011;7698;42.478;23.756;2023-06-24T01:06:50;11.23;;;10.32;;
15194;SDS011;7698;42.478;23.756;2023-06-24T01:09:18;13.43;;;12.45;;
15194;SDS011;7698;42.478;23.756;2023-06-24T01:11:45;15.15;;;14.00;;
15194;SDS011;7698;42.478;23.756;2023-06-24T01:14:13;12.80;;;11.88;;
15194;SDS011;7698;42.478;23.756;2023-06-24T01:16:46;14.80;;;13.60;;
15194;SDS011;7698;42.478;23.756;2023-06-24T01:22:26;11.85;;;10.95;;
15194;SDS011;7698;42.478;23.756;2023-06-24T01:25:18;14.25;;;13.18;;
15194;SDS011;7698;42.478;23.756;2023-06-24T01:33:54;13.10;;;12.02;;
15194;SDS011;7698;42.478;23.756;2023-06-24T01:36:28;15.55;;;14.35;;
15194;SDS011;7698;42.478;23.756;2023-06-24T01:39:00;15.25;;;14.05;;
15194;SDS011;7698;42.478;23.756;2023-06-24T01:41:30;16.20;;;14.77;;
15194;SDS011;7698;42.478;23.756;2023-06-24T01:44:00;14.68;;;13.50;;
15194;SDS011;7698;42.478;23.756;2023-06-24T01:46:29;15.50;;;14.30;;
15194;SDS011;7698;42.478;23.756;2023-06-24T01:48:58;13.23;;;12.25;;
15194;SDS011;7698;42.478;23.756;2023-06-24T01:51:28;13.30;;;12.23;;
15194;SDS011;7698;42.478;23.756;2023-06-24T01:54:00;14.48;;;13.38;;
15194;SDS011;7698;42.478;23.756;2023-06-24T01:56:29;15.00;;;13.85;;
15194;SDS011;7698;42.478;23.756;2023-06-24T01:58:58;13.48;;;12.48;;
15194;SDS011;7698;42.478;23.756;2023-06-24T02:01:30;15.85;;;14.73;;
15194;SDS011;7698;42.478;23.756;2023-06-24T02:03:59;15.10;;;14.00;;
15194;SDS011;7698;42.478;23.756;2023-06-24T02:06:28;14.05;;;12.95;;
15194;SDS011;7698;42.478;23.756;2023-06-24T02:08:56;14.93;;;13.73;;
15194;SDS011;7698;42.478;23.756;2023-06-24T02:11:24;14.68;;;13.50;;
15194;SDS011;7698;42.478;23.756;2023-06-24T02:13:54;15.00;;;13.90;;
15194;SDS011;7698;42.478;23.756;2023-06-24T02:16:22;16.23;;;15.02;;
15194;SDS011;7698;42.478;23.756;2023-06-24T02:18:52;17.50;;;16.02;;
15194;SDS011;7698;42.478;23.756;2023-06-24T02:21:20;13.30;;;12.20;;
15194;SDS011;7698;42.478;23.756;2023-06-24T02:23:49;14.48;;;13.43;;
15194;SDS011;7698;42.478;23.756;2023-06-24T02:26:17;12.75;;;11.85;;
15194;SDS011;7698;42.478;23.756;2023-06-24T02:28:44;12.98;;;12.02;;
15194;SDS011;7698;42.478;23.756;2023-06-24T02:31:12;14.05;;;12.95;;
15194;SDS011;7698;42.478;23.756;2023-06-24T02:33:39;12.93;;;11.93;;
15194;SDS011;7698;42.478;23.756;2023-06-24T02:36:07;14.40;;;13.30;;
15194;SDS011;7698;42.478;23.756;2023-06-24T02:38:34;13.07;;;12.05;;
15194;SDS011;7698;42.478;23.756;2023-06-24T02:41:01;15.48;;;14.38;;
15194;SDS011;7698;42.478;23.756;2023-06-24T02:43:29;14.13;;;13.10;;
15194;SDS011;7698;42.478;23.756;2023-06-24T02:45:56;15.95;;;14.75;;
15194;SDS011;7698;42.478;23.756;2023-06-24T02:48:25;13.13;;;12.18;;
15194;SDS011;7698;42.478;23.756;2023-06-24T02:50:54;18.52;;;17.10;;
15194;SDS011;7698;42.478;23.756;2023-06-24T02:53:23;14.55;;;13.45;;
15194;SDS011;7698;42.478;23.756;2023-06-24T02:55:50;15.77;;;14.57;;
15194;SDS011;7698;42.478;23.756;2023-06-24T02:58:19;16.02;;;14.82;;
15194;SDS011;7698;42.478;23.756;2023-06-24T03:00:46;12.38;;;11.38;;
15194;SDS011;7698;42.478;23.756;2023-06-24T03:03:14;15.30;;;14.13;;
15194;SDS011;7698;42.478;23.756;2023-06-24T03:05:42;16.33;;;15.13;;
15194;SDS011;7698;42.478;23.756;2023-06-24T03:08:09;17.40;;;15.80;;
15194;SDS011;7698;42.478;23.756;2023-06-24T03:10:38;17.40;;;15.90;;
15194;SDS011;7698;42.478;23.756;2023-06-24T03:13:05;15.48;;;14.25;;
15194;SDS011;7698;42.478;23.756;2023-06-24T03:15:32;13.55;;;12.55;;
15194;SDS011;7698;42.478;23.756;2023-06-24T03:17:58;15.52;;;14.35;;
15194;SDS011;7698;42.478;23.756;2023-06-24T03:20:25;13.88;;;12.85;;
15194;SDS011;7698;42.478;23.756;2023-06-24T03:22:52;14.15;;;13.05;;
15194;SDS011;7698;42.478;23.756;2023-06-24T03:25:21;13.38;;;12.38;;
15194;SDS011;7698;42.478;23.756;2023-06-24T03:27:49;12.35;;;11.30;;
15194;SDS011;7698;42.478;23.756;2023-06-24T03:30:16;13.05;;;12.05;;
15194;SDS011;7698;42.478;23.756;2023-06-24T03:32:42;12.75;;;11.85;;
15194;SDS011;7698;42.478;23.756;2023-06-24T03:35:11;12.32;;;11.43;;
15194;SDS011;7698;42.478;23.756;2023-06-24T03:37:38;14.55;;;13.45;;
15194;SDS011;7698;42.478;23.756;2023-06-24T03:40:06;14.68;;;13.57;;
15194;SDS011;7698;42.478;23.756;2023-06-24T03:42:34;16.30;;;15.07;;
15194;SDS011;7698;42.478;23.756;2023-06-24T03:45:03;14.45;;;13.45;;
15194;SDS011;7698;42.478;23.756;2023-06-24T03:47:30;16.05;;;14.57;;
15194;SDS011;7698;42.478;23.756;2023-06-24T03:49:57;13.98;;;12.85;;
15194;SDS011;7698;42.478;23.756;2023-06-24T03:52:24;14.45;;;13.35;;
15194;SDS011;7698;42.478;23.756;2023-06-24T03:54:51;15.73;;;14.32;;
15194;SDS011;7698;42.478;23.756;2023-06-24T03:57:18;13.88;;;12.65;;
15194;SDS011;7698;42.478;23.756;2023-06-24T03:59:46;15.20;;;13.90;;
15194;SDS011;7698;42.478;23.756;2023-06-24T04:02:14;13.23;;;12.23;;
15194;SDS011;7698;42.478;23.756;2023-06-24T04:04:42;15.38;;;14.30;;
15194;SDS011;7698;42.478;23.756;2023-06-24T04:07:09;15.95;;;14.55;;
15194;SDS011;7698;42.478;23.756;2023-06-24T04:09:36;16.40;;;14.85;;
15194;SDS011;7698;42.478;23.756;2023-06-24T04:12:03;15.00;;;13.90;;
15194;SDS011;7698;42.478;23.756;2023-06-24T04:14:30;14.20;;;13.13;;
15194;SDS011;7698;42.478;23.756;2023-06-24T04:16:57;14.77;;;13.68;;
15194;SDS011;7698;42.478;23.756;2023-06-24T04:19:26;15.63;;;14.27;;
15194;SDS011;7698;42.478;23.756;2023-06-24T04:21:53;13.30;;;12.23;;
15194;SDS011;7698;42.478;23.756;2023-06-24T04:24:20;13.18;;;12.18;;
15194;SDS011;7698;42.478;23.756;2023-06-24T04:26:47;13.38;;;12.27;;
15194;SDS011;7698;42.478;23.756;2023-06-24T04:29:14;13.07;;;11.90;;
15194;SDS011;7698;42.478;23.756;2023-06-24T04:31:41;12.25;;;11.45;;
15194;SDS011;7698;42.478;23.756;2023-06-24T04:34:07;12.07;;;11.18;;
15194;SDS011;7698;42.478;23.756;2023-06-24T04:36:35;11.40;;;10.48;;
15194;SDS011;7698;42.478;23.756;2023-06-24T04:39:03;11.48;;;10.68;;
15194;SDS011;7698;42.478;23.756;2023-06-24T04:41:31;11.43;;;10.60;;
15194;SDS011;7698;42.478;23.756;2023-06-24T04:43:58;10.98;;;10.15;;
15194;SDS011;7698;42.478;23.756;2023-06-24T04:46:25;9.65;;;8.75;;
15194;SDS011;7698;42.478;23.756;2023-06-24T04:48:52;10.77;;;9.98;;
15194;SDS011;7698;42.478;23.756;2023-06-24T04:51:18;10.85;;;10.05;;
15194;SDS011;7698;42.478;23.756;2023-06-24T04:53:47;11.15;;;10.25;;
15194;SDS011;7698;42.478;23.756;2023-06-24T04:56:13;10.55;;;9.75;;
15194;SDS011;7698;42.478;23.756;2023-06-24T04:58:40;10.23;;;9.43;;
15194;SDS011;7698;42.478;23.756;2023-06-24T05:01:07;10.55;;;9.85;;
15194;SDS011;7698;42.478;23.756;2023-06-24T05:03:34;10.05;;;9.05;;
15194;SDS011;7698;42.478;23.756;2023-06-24T05:06:01;10.48;;;9.77;;
15194;SDS011;7698;42.478;23.756;2023-06-24T05:08:27;10.88;;;10.07;;
15194;SDS011;7698;42.478;23.756;2023-06-24T05:10:56;9.82;;;9.20;;
15194;SDS011;7698;42.478;23.756;2023-06-24T05:13:22;11.38;;;10.43;;
15194;SDS011;7698;42.478;23.756;2023-06-24T05:15:49;10.50;;;9.70;;
15194;SDS011;7698;42.478;23.756;2023-06-24T05:18:16;10.35;;;9.65;;
15194;SDS011;7698;42.478;23.756;2023-06-24T05:20:43;8.63;;;8.10;;
15194;SDS011;7698;42.478;23.756;2023-06-24T05:23:10;9.98;;;9.07;;
15194;SDS011;7698;42.478;23.756;2023-06-24T05:25:37;8.63;;;8.00;;
15194;SDS011;7698;42.478;23.756;2023-06-24T05:28:05;9.57;;;8.82;;
15194;SDS011;7698;42.478;23.756;2023-06-24T05:30:32;8.30;;;7.70;;
15194;SDS011;7698;42.478;23.756;2023-06-24T05:32:58;8.63;;;7.95;;
15194;SDS011;7698;42.478;23.756;2023-06-24T05:35:25;9.80;;;8.93;;
15194;SDS011;7698;42.478;23.756;2023-06-24T05:37:53;10.07;;;9.20;;
15194;SDS011;7698;42.478;23.756;2023-06-24T05:40:20;8.80;;;8.18;;
15194;SDS011;7698;42.478;23.756;2023-06-24T05:42:47;8.40;;;7.80;;
15194;SDS011;7698;42.478;23.756;2023-06-24T05:45:15;9.13;;;8.35;;
15194;SDS011;7698;42.478;23.756;2023-06-24T05:47:41;7.85;;;7.25;;
15194;SDS011;7698;42.478;23.756;2023-06-24T05:50:09;9.13;;;8.30;;
15194;SDS011;7698;42.478;23.756;2023-06-24T05:52:36;8.70;;;8.10;;
15194;SDS011;7698;42.478;23.756;2023-06-24T05:55:03;8.88;;;8.27;;
15194;SDS011;7698;42.478;23.756;2023-06-24T05:57:30;8.73;;;7.97;;
15194;SDS011;7698;42.478;23.756;2023-06-24T05:59:57;8.68;;;7.88;;
15194;SDS011;7698;42.478;23.756;2023-06-24T06:02:25;7.82;;;7.32;;
15194;SDS011;7698;42.478;23.756;2023-06-24T06:04:52;8.25;;;7.65;;
15194;SDS011;7698;42.478;23.756;2023-06-24T06:07:19;8.20;;;7.45;;
15194;SDS011;7698;42.478;23.756;2023-06-24T06:09:46;7.68;;;7.18;;
15194;SDS011;7698;42.478;23.756;2023-06-24T06:12:13;8.85;;;8.07;;
15194;SDS011;7698;42.478;23.756;2023-06-24T06:14:41;8.52;;;7.75;;
15194;SDS011;7698;42.478;23.756;2023-06-24T06:17:08;8.05;;;7.45;;
15194;SDS011;7698;42.478;23.756;2023-06-24T06:19:36;7.60;;;7.10;;
15194;SDS011;7698;42.478;23.756;2023-06-24T06:22:05;8.73;;;8.05;;
15194;SDS011;7698;42.478;23.756;2023-06-24T06:24:32;7.63;;;7.03;;
15194;SDS011;7698;42.478;23.756;2023-06-24T06:26:59;7.75;;;7.15;;
15194;SDS011;7698;42.478;23.756;2023-06-24T06:29:25;8.30;;;7.60;;
15194;SDS011;7698;42.478;23.756;2023-06-24T06:31:52;8.27;;;7.57;;
15194;SDS011;7698;42.478;23.756;2023-06-24T06:34:20;8.30;;;7.70;;
15194;SDS011;7698;42.478;23.756;2023-06-24T06:36:48;8.63;;;7.93;;
15194;SDS011;7698;42.478;23.756;2023-06-24T06:39:15;9.90;;;9.00;;
15194;SDS011;7698;42.478;23.756;2023-06-24T06:41:42;9.50;;;8.57;;
15194;SDS011;7698;42.478;23.756;2023-06-24T06:44:09;9.60;;;8.80;;
15194;SDS011;7698;42.478;23.756;2023-06-24T06:46:36;10.45;;;9.50;;
15194;SDS011;7698;42.478;23.756;2023-06-24T06:49:03;9.13;;;8.43;;
15194;SDS011;7698;42.478;23.756;2023-06-24T06:51:30;8.40;;;7.80;;
15194;SDS011;7698;42.478;23.756;2023-06-24T06:53:58;8.07;;;7.45;;
15194;SDS011;7698;42.478;23.756;2023-06-24T06:56:25;8.40;;;7.70;;
15194;SDS011;7698;42.478;23.756;2023-06-24T06:58:52;7.82;;;7.22;;
15194;SDS011;7698;42.478;23.756;2023-06-24T07:01:20;7.13;;;6.53;;
15194;SDS011;7698;42.478;23.756;2023-06-24T07:03:48;7.95;;;7.43;;
15194;SDS011;7698;42.478;23.756;2023-06-24T07:06:17;7.47;;;6.88;;
15194;SDS011;7698;42.478;23.756;2023-06-24T07:08:45;7.47;;;6.97;;
15194;SDS011;7698;42.478;23.756;2023-06-24T07:11:13;7.13;;;6.63;;
15194;SDS011;7698;42.478;23.756;2023-06-24T07:13:40;7.28;;;6.68;;
15194;SDS011;7698;42.478;23.756;2023-06-24T07:16:07;7.05;;;6.45;;
15194;SDS011;7698;42.478;23.756;2023-06-24T07:18:34;7.82;;;7.13;;
15194;SDS011;7698;42.478;23.756;2023-06-24T07:21:01;7.88;;;7.28;;
15194;SDS011;7698;42.478;23.756;2023-06-24T07:23:28;7.82;;;7.22;;
15194;SDS011;7698;42.478;23.756;2023-06-24T07:25:55;6.53;;;6.03;;
15194;SDS011;7698;42.478;23.756;2023-06-24T07:28:23;7.72;;;7.15;;
15194;SDS011;7698;42.478;23.756;2023-06-24T07:30:50;7.15;;;6.50;;
15194;SDS011;7698;42.478;23.756;2023-06-24T07:33:17;7.13;;;6.53;;
15194;SDS011;7698;42.478;23.756;2023-06-24T07:35:47;7.45;;;6.95;;
15194;SDS011;7698;42.478;23.756;2023-06-24T07:38:14;7.25;;;6.75;;
15194;SDS011;7698;42.478;23.756;2023-06-24T07:40:41;6.15;;;5.72;;
15194;SDS011;7698;42.478;23.756;2023-06-24T07:43:08;7.15;;;6.65;;
15194;SDS011;7698;42.478;23.756;2023-06-24T07:45:37;6.97;;;6.38;;
15194;SDS011;7698;42.478;23.756;2023-06-24T07:48:04;6.38;;;5.88;;
15194;SDS011;7698;42.478;23.756;2023-06-24T07:50:32;5.97;;;5.57;;
15194;SDS011;7698;42.478;23.756;2023-06-24T07:52:59;6.22;;;5.82;;
15194;SDS011;7698;42.478;23.756;2023-06-24T07:55:26;6.22;;;5.82;;
15194;SDS011;7698;42.478;23.756;2023-06-24T07:57:54;7.03;;;6.43;;
15194;SDS011;7698;42.478;23.756;2023-06-24T08:00:22;6.95;;;6.45;;
15194;SDS011;7698;42.478;23.756;2023-06-24T08:02:50;6.82;;;6.30;;
15194;SDS011;7698;42.478;23.756;2023-06-24T08:05:18;7.10;;;6.60;;
15194;SDS011;7698;42.478;23.756;2023-06-24T08:07:45;7.10;;;6.57;;
15194;SDS011;7698;42.478;23.756;2023-06-24T08:10:12;8.23;;;6.40;;
15194;SDS011;7698;42.478;23.756;2023-06-24T08:12:39;6.60;;;6.10;;
15194;SDS011;7698;42.478;23.756;2023-06-24T08:15:07;6.93;;;6.32;;
15194;SDS011;7698;42.478;23.756;2023-06-24T08:17:34;6.63;;;6.03;;
15194;SDS011;7698;42.478;23.756;2023-06-24T08:20:04;6.38;;;5.97;;
15194;SDS011;7698;42.478;23.756;2023-06-24T08:22:32;6.70;;;6.00;;
15194;SDS011;7698;42.478;23.756;2023-06-24T08:24:59;6.57;;;5.97;;
15194;SDS011;7698;42.478;23.756;2023-06-24T08:27:26;7.28;;;6.65;;
15194;SDS011;7698;42.478;23.756;2023-06-24T08:29:53;5.60;;;5.28;;
15194;SDS011;7698;42.478;23.756;2023-06-24T08:32:20;6.30;;;5.90;;
15194;SDS011;7698;42.478;23.756;2023-06-24T08:34:47;6.82;;;6.30;;
15194;SDS011;7698;42.478;23.756;2023-06-24T08:37:16;6.30;;;5.90;;
15194;SDS011;7698;42.478;23.756;2023-06-24T08:39:42;8.10;;;7.50;;
15194;SDS011;7698;42.478;23.756;2023-06-24T08:42:10;6.78;;;6.25;;
15194;SDS011;7698;42.478;23.756;2023-06-24T08:44:37;6.88;;;6.20;;
15194;SDS011;7698;42.478;23.756;2023-06-24T08:47:04;6.90;;;6.50;;
15194;SDS011;7698;42.478;23.756;2023-06-24T08:49:31;7.82;;;7.22;;
15194;SDS011;7698;42.478;23.756;2023-06-24T08:52:02;7.18;;;6.57;;
15194;SDS011;7698;42.478;23.756;2023-06-24T08:54:34;7.40;;;6.90;;
15194;SDS011;7698;42.478;23.756;2023-06-24T08:57:04;7.15;;;6.45;;
15194;SDS011;7698;42.478;23.756;2023-06-24T08:59:32;6.43;;;5.93;;
15194;SDS011;7698;42.478;23.756;2023-06-24T09:02:00;6.75;;;6.20;;
15194;SDS011;7698;42.478;23.756;2023-06-24T09:04:27;10.05;;;9.32;;
15194;SDS011;7698;42.478;23.756;2023-06-24T09:06:55;8.20;;;7.60;;
15194;SDS011;7698;42.478;23.756;2023-06-24T09:09:23;7.55;;;6.95;;
15194;SDS011;7698;42.478;23.756;2023-06-24T09:11:52;6.70;;;6.20;;
15194;SDS011;7698;42.478;23.756;2023-06-24T09:14:20;7.93;;;7.25;;
15194;SDS011;7698;42.478;23.756;2023-06-24T09:16:51;6.40;;;5.97;;
15194;SDS011;7698;42.478;23.756;2023-06-24T09:19:20;7.55;;;7.05;;
15194;SDS011;7698;42.478;23.756;2023-06-24T09:21:47;6.65;;;6.25;;
15194;SDS011;7698;42.478;23.756;2023-06-24T09:24:15;6.95;;;6.25;;
15194;SDS011;7698;42.478;23.756;2023-06-24T09:26:42;7.10;;;6.40;;
15194;SDS011;7698;42.478;23.756;2023-06-24T09:29:12;6.82;;;6.22;;
15194;SDS011;7698;42.478;23.756;2023-06-24T09:31:46;6.78;;;6.38;;
15194;SDS011;7698;42.478;23.756;2023-06-24T09:34:14;6.13;;;5.63;;
15194;SDS011;7698;42.478;23.756;2023-06-24T09:36:42;6.80;;;6.30;;
15194;SDS011;7698;42.478;23.756;2023-06-24T09:39:10;7.32;;;6.72;;
15194;SDS011;7698;42.478;23.756;2023-06-24T09:41:39;6.75;;;6.35;;
15194;SDS011;7698;42.478;23.756;2023-06-24T09:44:08;6.72;;;6.22;;
15194;SDS011;7698;42.478;23.756;2023-06-24T09:46:38;6.35;;;5.95;;
15194;SDS011;7698;42.478;23.756;2023-06-24T09:49:07;6.03;;;5.63;;
15194;SDS011;7698;42.478;23.756;2023-06-24T09:51:35;5.70;;;5.30;;
15194;SDS011;7698;42.478;23.756;2023-06-24T09:54:05;6.43;;;6.03;;
15194;SDS011;7698;42.478;23.756;2023-06-24T09:56:33;7.55;;;6.95;;
15194;SDS011;7698;42.478;23.756;2023-06-24T09:59:03;7.57;;;7.07;;
15194;SDS011;7698;42.478;23.756;2023-06-24T10:01:31;6.78;;;6.25;;
15194;SDS011;7698;42.478;23.756;2023-06-24T10:04:02;6.22;;;5.72;;
15194;SDS011;7698;42.478;23.756;2023-06-24T10:06:31;6.72;;;6.07;;
15194;SDS011;7698;42.478;23.756;2023-06-24T10:08:59;5.72;;;5.32;;
15194;SDS011;7698;42.478;23.756;2023-06-24T10:11:26;6.35;;;5.95;;
15194;SDS011;7698;42.478;23.756;2023-06-24T10:13:53;6.90;;;6.30;;
15194;SDS011;7698;42.478;23.756;2023-06-24T10:16:21;6.75;;;6.35;;
15194;SDS011;7698;42.478;23.756;2023-06-24T10:18:49;6.20;;;5.78;;
15194;SDS011;7698;42.478;23.756;2023-06-24T10:21:18;5.95;;;5.53;;
15194;SDS011;7698;42.478;23.756;2023-06-24T10:23:51;6.50;;;6.05;;
15194;SDS011;7698;42.478;23.756;2023-06-24T10:26:23;5.78;;;5.40;;
15194;SDS011;7698;42.478;23.756;2023-06-24T10:29:09;7.00;;;6.30;;
15194;SDS011;7698;42.478;23.756;2023-06-24T10:31:51;6.25;;;5.75;;
15194;SDS011;7698;42.478;23.756;2023-06-24T10:34:38;7.00;;;6.38;;
15194;SDS011;7698;42.478;23.756;2023-06-24T10:37:12;7.47;;;6.90;;
15194;SDS011;7698;42.478;23.756;2023-06-24T10:39:44;7.47;;;6.97;;
15194;SDS011;7698;42.478;23.756;2023-06-24T10:45:16;7.28;;;6.68;;
15194;SDS011;7698;42.478;23.756;2023-06-24T10:47:45;9.82;;;9.13;;
15194;SDS011;7698;42.478;23.756;2023-06-24T10:50:14;7.63;;;7.03;;
15194;SDS011;7698;42.478;23.756;2023-06-24T10:52:44;6.22;;;5.63;;
15194;SDS011;7698;42.478;23.756;2023-06-24T10:55:13;5.60;;;5.22;;
15194;SDS011;7698;42.478;23.756;2023-06-24T10:57:41;5.85;;;5.45;;
15194;SDS011;7698;42.478;23.756;2023-06-24T11:00:10;6.07;;;5.55;;
15194;SDS011;7698;42.478;23.756;2023-06-24T11:02:38;6.15;;;5.65;;
15194;SDS011;7698;42.478;23.756;2023-06-24T11:05:06;6.00;;;5.30;;
15194;SDS011;7698;42.478;23.756;2023-06-24T11:07:34;5.15;;;4.80;;
15194;SDS011;7698;42.478;23.756;2023-06-24T11:10:04;5.53;;;5.13;;
15194;SDS011;7698;42.478;23.756;2023-06-24T11:12:33;5.10;;;4.80;;
15194;SDS011;7698;42.478;23.756;2023-06-24T11:15:03;5.95;;;5.53;;
15194;SDS011;7698;42.478;23.756;2023-06-24T11:17:32;6.20;;;5.70;;
15194;SDS011;7698;42.478;23.756;2023-06-24T11:20:00;5.38;;;4.93;;
15194;SDS011;7698;42.478;23.756;2023-06-24T11:22:27;6.07;;;5.57;;
15194;SDS011;7698;42.478;23.756;2023-06-24T11:24:55;7.03;;;5.45;;
15194;SDS011;7698;42.478;23.756;2023-06-24T11:27:28;6.70;;;6.30;;
15194;SDS011;7698;42.478;23.756;2023-06-24T11:29:57;7.25;;;6.68;;
15194;SDS011;7698;42.478;23.756;2023-06-24T11:32:34;6.32;;;5.82;;
15194;SDS011;7698;42.478;23.756;2023-06-24T11:35:02;6.53;;;5.80;;
15194;SDS011;7698;42.478;23.756;2023-06-24T11:37:30;6.57;;;6.05;;
15194;SDS011;7698;42.478;23.756;2023-06-24T11:40:01;6.75;;;5.80;;
15194;SDS011;7698;42.478;23.756;2023-06-24T11:42:31;6.45;;;6.05;;
15194;SDS011;7698;42.478;23.756;2023-06-24T11:45:02;6.72;;;5.63;;
15194;SDS011;7698;42.478;23.756;2023-06-24T11:47:33;6.30;;;5.75;;
15194;SDS011;7698;42.478;23.756;2023-06-24T11:50:01;6.45;;;5.95;;
15194;SDS011;7698;42.478;23.756;2023-06-24T11:52:32;6.22;;;5.72;;
15194;SDS011;7698;42.478;23.756;2023-06-24T11:55:10;6.10;;;5.70;;
15194;SDS011;7698;42.478;23.756;2023-06-24T11:57:52;6.47;;;5.88;;
15194;SDS011;7698;42.478;23.756;2023-06-24T12:00:22;5.07;;;4.72;;
15194;SDS011;7698;42.478;23.756;2023-06-24T12:02:50;6.00;;;5.60;;
15194;SDS011;7698;42.478;23.756;2023-06-24T12:05:26;5.82;;;5.43;;
15194;SDS011;7698;42.478;23.756;2023-06-24T12:07:54;6.20;;;5.80;;
15194;SDS011;7698;42.478;23.756;2023-06-24T12:10:23;6.18;;;5.78;;
15194;SDS011;7698;42.478;23.756;2023-06-24T12:12:52;7.05;;;6.55;;
15194;SDS011;7698;42.478;23.756;2023-06-24T12:15:19;6.72;;;6.30;;
15194;SDS011;7698;42.478;23.756;2023-06-24T12:17:47;7.20;;;6.60;;
15194;SDS011;7698;42.478;23.756;2023-06-24T12:20:14;7.78;;;7.18;;
15194;SDS011;7698;42.478;23.756;2023-06-24T12:22:43;7.32;;;6.72;;
15194;SDS011;7698;42.478;23.756;2023-06-24T12:25:10;7.60;;;6.30;;
15194;SDS011;7698;42.478;23.756;2023-06-24T12:27:38;7.50;;;6.88;;
15194;SDS011;7698;42.478;23.756;2023-06-24T12:30:08;6.40;;;5.90;;
15194;SDS011;7698;42.478;23.756;2023-06-24T12:32:36;7.35;;;6.75;;
15194;SDS011;7698;42.478;23.756;2023-06-24T12:35:04;6.80;;;6.20;;
15194;SDS011;7698;42.478;23.756;2023-06-24T12:37:34;5.45;;;5.15;;
15194;SDS011;7698;42.478;23.756;2023-06-24T12:40:01;6.25;;;5.85;;
15194;SDS011;7698;42.478;23.756;2023-06-24T12:42:28;5.88;;;5.40;;
15194;SDS011;7698;42.478;23.756;2023-06-24T12:44:55;5.60;;;5.20;;
15194;SDS011;7698;42.478;23.756;2023-06-24T12:47:23;5.80;;;5.38;;
15194;SDS011;7698;42.478;23.756;2023-06-24T12:49:51;6.25;;;5.72;;
15194;SDS011;7698;42.478;23.756;2023-06-24T12:52:19;5.93;;;5.53;;
15194;SDS011;7698;42.478;23.756;2023-06-24T12:54:46;6.32;;;5.82;;
15194;SDS011;7698;42.478;23.756;2023-06-24T12:57:13;5.68;;;5.18;;
15194;SDS011;7698;42.478;23.756;2023-06-24T12:59:40;5.72;;;5.32;;
15194;SDS011;7698;42.478;23.756;2023-06-24T13:02:08;5.55;;;5.22;;
15194;SDS011;7698;42.478;23.756;2023-06-24T13:04:36;5.50;;;5.03;;
15194;SDS011;7698;42.478;23.756;2023-06-24T13:07:04;5.80;;;5.40;;
15194;SDS011;7698;42.478;23.756;2023-06-24T13:09:32;6.00;;;5.60;;
15194;SDS011;7698;42.478;23.756;2023-06-24T13:11:59;6.70;;;6.25;;
15194;SDS011;7698;42.478;23.756;2023-06-24T13:14:26;6.65;;;6.15;;
15194;SDS011;7698;42.478;23.756;2023-06-24T13:16:54;5.57;;;5.18;;
15194;SDS011;7698;42.478;23.756;2023-06-24T13:19:21;6.15;;;5.65;;
15194;SDS011;7698;42.478;23.756;2023-06-24T13:21:50;5.78;;;5.38;;
15194;SDS011;7698;42.478;23.756;2023-06-24T13:24:17;5.45;;;5.15;;
15194;SDS011;7698;42.478;23.756;2023-06-24T13:26:45;6.68;;;6.18;;
15194;SDS011;7698;42.478;23.756;2023-06-24T13:29:12;5.28;;;4.97;;
15194;SDS011;7698;42.478;23.756;2023-06-24T13:31:39;4.95;;;4.65;;
15194;SDS011;7698;42.478;23.756;2023-06-24T13:34:06;5.15;;;4.75;;
15194;SDS011;7698;42.478;23.756;2023-06-24T13:36:34;5.85;;;5.43;;
15194;SDS011;7698;42.478;23.756;2023-06-24T13:39:04;7.72;;;7.22;;
15194;SDS011;7698;42.478;23.756;2023-06-24T13:41:32;20.30;;;18.63;;
15194;SDS011;7698;42.478;23.756;2023-06-24T13:43:59;8.05;;;7.45;;
15194;SDS011;7698;42.478;23.756;2023-06-24T13:46:27;7.40;;;6.68;;
15194;SDS011;7698;42.478;23.756;2023-06-24T13:48:55;7.03;;;6.53;;
15194;SDS011;7698;42.478;23.756;2023-06-24T13:51:22;7.80;;;7.10;;
15194;SDS011;7698;42.478;23.756;2023-06-24T13:53:50;7.45;;;6.95;;
15194;SDS011;7698;42.478;23.756;2023-06-24T13:56:21;6.93;;;6.43;;
15194;SDS011;7698;42.478;23.756;2023-06-24T13:58:50;7.82;;;7.22;;
15194;SDS011;7698;42.478;23.756;2023-06-24T14:01:17;8.48;;;7.88;;
15194;SDS011;7698;42.478;23.756;2023-06-24T14:03:45;8.00;;;7.40;;
15194;SDS011;7698;42.478;23.756;2023-06-24T14:06:13;7.30;;;6.80;;
15194;SDS011;7698;42.478;23.756;2023-06-24T14:08:41;8.55;;;7.85;;
15194;SDS011;7698;42.478;23.756;2023-06-24T14:11:09;8.75;;;7.95;;
15194;SDS011;7698;42.478;23.756;2023-06-24T14:13:38;9.30;;;8.55;;
15194;SDS011;7698;42.478;23.756;2023-06-24T14:16:05;8.95;;;8.05;;
15194;SDS011;7698;42.478;23.756;2023-06-24T14:18:32;8.95;;;8.18;;
15194;SDS011;7698;42.478;23.756;2023-06-24T14:21:00;9.27;;;8.48;;
15194;SDS011;7698;42.478;23.756;2023-06-24T14:23:30;8.88;;;8.20;;
15194;SDS011;7698;42.478;23.756;2023-06-24T14:26:00;8.15;;;7.47;;
15194;SDS011;7698;42.478;23.756;2023-06-24T14:28:28;12.18;;;11.23;;
15194;SDS011;7698;42.478;23.756;2023-06-24T14:30:57;9.35;;;8.70;;
15194;SDS011;7698;42.478;23.756;2023-06-24T14:33:25;10.20;;;9.40;;
15194;SDS011;7698;42.478;23.756;2023-06-24T14:35:52;10.45;;;9.63;;
15194;SDS011;7698;42.478;23.756;2023-06-24T14:38:20;7.80;;;6.72;;
15194;SDS011;7698;42.478;23.756;2023-06-24T14:40:49;11.68;;;7.63;;
15194;SDS011;7698;42.478;23.756;2023-06-24T14:43:18;9.20;;;7.95;;
15194;SDS011;7698;42.478;23.756;2023-06-24T14:45:45;8.48;;;7.68;;
15194;SDS011;7698;42.478;23.756;2023-06-24T14:48:14;6.95;;;6.28;;
15194;SDS011;7698;42.478;23.756;2023-06-24T14:50:42;8.27;;;6.25;;
15194;SDS011;7698;42.478;23.756;2023-06-24T14:53:10;4.95;;;3.90;;
15194;SDS011;7698;42.478;23.756;2023-06-24T14:55:38;4.93;;;4.43;;